createdAt,value
2023-05-14T00:01:00.880Z,18.65
2023-05-14T00:03:27.506Z,17.30
2023-05-14T00:05:53.952Z,14.60
2023-05-14T00:08:20.482Z,15.57
2023-05-14T00:10:47.029Z,16.98
2023-05-14T00:13:13.507Z,16.48
2023-05-14T00:15:40.128Z,16.02
2023-05-14T00:18:07.116Z,17.90
2023-05-14T00:20:33.603Z,15.38
2023-05-14T00:23:00.288Z,16.52
2023-05-14T00:25:26.873Z,16.50
2023-05-14T00:27:53.311Z,16.58
2023-05-14T00:30:19.853Z,16.95
2023-05-14T00:32:46.339Z,17.63
2023-05-14T00:35:12.774Z,18.40
2023-05-14T00:37:39.201Z,14.30
2023-05-14T00:40:07.203Z,15.27
2023-05-14T00:42:33.748Z,17.55
2023-05-14T00:45:00.445Z,16.80
2023-05-14T00:47:27.180Z,17.75
2023-05-14T00:49:53.693Z,16.23
2023-05-14T00:52:20.460Z,15.63
2023-05-14T00:54:47.370Z,18.23
2023-05-14T00:57:13.918Z,15.88
2023-05-14T00:59:41.777Z,16.73
2023-05-14T01:02:08.292Z,19.42
2023-05-14T01:04:35.269Z,17.90
2023-05-14T01:07:04.574Z,16.77
2023-05-14T01:09:50.165Z,15.80
2023-05-14T01:12:26.116Z,18.30
2023-05-14T01:17:22.947Z,17.73
2023-05-14T01:19:51.750Z,18.30
2023-05-14T01:22:18.215Z,15.25
2023-05-14T01:24:44.680Z,16.75
2023-05-14T01:27:10.971Z,15.10
2023-05-14T01:29:39.111Z,16.30
2023-05-14T01:32:06.966Z,17.70
2023-05-14T01:34:35.477Z,18.13
2023-05-14T01:37:02.047Z,15.57
2023-05-14T01:39:28.836Z,15.80
2023-05-14T01:41:55.640Z,16.65
2023-05-14T01:44:22.323Z,16.13
2023-05-14T01:46:48.730Z,16.13
2023-05-14T01:49:16.138Z,16.55
2023-05-14T01:51:42.579Z,15.15
2023-05-14T01:54:09.019Z,15.40
2023-05-14T01:56:35.684Z,17.38
2023-05-14T01:59:02.302Z,18.73
2023-05-14T02:01:28.818Z,15.25
2023-05-14T02:03:55.351Z,15.95
2023-05-14T02:06:21.868Z,15.95
2023-05-14T02:08:48.356Z,16.58
2023-05-14T02:11:14.808Z,17.30
2023-05-14T02:13:41.323Z,15.80
2023-05-14T02:16:07.968Z,18.05
2023-05-14T02:18:34.496Z,15.70
2023-05-14T02:21:00.960Z,20.13
2023-05-14T02:23:37.766Z,20.50
2023-05-14T02:26:09.544Z,18.85
2023-05-14T02:28:36.190Z,17.15
2023-05-14T02:31:02.684Z,18.55
2023-05-14T02:33:29.239Z,17.77
2023-05-14T02:35:55.724Z,15.50
2023-05-14T02:38:23.368Z,19.80
2023-05-14T02:40:49.821Z,18.75
2023-05-14T02:43:16.334Z,18.10
2023-05-14T02:45:43.006Z,17.70
2023-05-14T02:48:09.470Z,17.17
2023-05-14T02:50:35.899Z,17.65
2023-05-14T02:53:02.349Z,15.18
2023-05-14T02:55:28.828Z,18.60
2023-05-14T02:57:55.320Z,19.48
2023-05-14T03:00:21.950Z,18.30
2023-05-14T03:02:49.002Z,17.77
2023-05-14T03:05:15.834Z,18.52
2023-05-14T03:07:42.259Z,18.35
2023-05-14T03:10:09.179Z,17.17
2023-05-14T03:12:35.674Z,20.85
2023-05-14T03:15:02.165Z,17.45
2023-05-14T03:17:28.715Z,17.23
2023-05-14T03:19:55.174Z,16.80
2023-05-14T03:22:21.880Z,16.98
2023-05-14T03:24:48.272Z,20.33
2023-05-14T03:27:15.031Z,16.92
2023-05-14T03:29:41.548Z,16.75
2023-05-14T03:32:07.983Z,20.20
2023-05-14T03:34:34.368Z,19.08
2023-05-14T03:37:01.001Z,18.52
2023-05-14T03:39:27.396Z,17.60
2023-05-14T03:41:53.873Z,17.73
2023-05-14T03:44:20.332Z,16.13
2023-05-14T03:46:46.707Z,18.15
2023-05-14T03:49:13.213Z,17.15
2023-05-14T03:51:39.730Z,16.92
2023-05-14T03:54:06.562Z,15.25
2023-05-14T03:56:33.026Z,19.38
2023-05-14T03:58:59.568Z,16.80
2023-05-14T04:01:25.973Z,17.77
2023-05-14T04:03:52.500Z,16.73
2023-05-14T04:06:19.240Z,15.90
2023-05-14T04:08:45.723Z,16.33
2023-05-14T04:11:12.211Z,17.65
2023-05-14T04:13:38.728Z,14.85
2023-05-14T04:16:05.690Z,17.88
2023-05-14T04:18:35.319Z,17.67
2023-05-14T04:21:02.329Z,17.73
2023-05-14T04:23:29.304Z,17.48
2023-05-14T04:25:55.762Z,16.45
2023-05-14T04:28:22.239Z,16.15
2023-05-14T04:30:49.001Z,19.45
2023-05-14T04:33:15.758Z,18.17
2023-05-14T04:35:42.228Z,18.38
2023-05-14T04:38:09.133Z,16.73
2023-05-14T04:40:35.702Z,16.30
2023-05-14T04:43:02.132Z,16.63
2023-05-14T04:45:28.609Z,16.38
2023-05-14T04:47:55.113Z,14.57
2023-05-14T04:50:22.040Z,18.02
2023-05-14T04:52:48.751Z,16.30
2023-05-14T04:55:15.161Z,16.80
2023-05-14T04:57:41.638Z,16.92
2023-05-14T05:00:11.857Z,17.50
2023-05-14T05:02:38.357Z,16.13
2023-05-14T05:05:05.156Z,14.60
2023-05-14T05:07:31.691Z,14.45
2023-05-14T05:09:58.256Z,14.95
2023-05-14T05:12:24.911Z,16.77
2023-05-14T05:14:51.436Z,14.13
2023-05-14T05:17:17.900Z,17.98
2023-05-14T05:19:44.745Z,15.88
2023-05-14T05:22:11.413Z,13.32
2023-05-14T05:24:37.887Z,15.63
2023-05-14T05:27:05.494Z,16.48
2023-05-14T05:29:31.986Z,14.45
2023-05-14T05:31:59.052Z,14.25
2023-05-14T05:34:25.610Z,18.23
2023-05-14T05:36:52.100Z,15.57
2023-05-14T05:39:18.476Z,13.75
2023-05-14T05:41:44.944Z,16.63
2023-05-14T05:44:11.443Z,14.30
2023-05-14T05:46:37.961Z,14.75
2023-05-14T05:49:04.446Z,15.43
2023-05-14T05:51:31.501Z,14.55
2023-05-14T05:53:57.955Z,18.27
2023-05-14T05:56:24.515Z,14.95
2023-05-14T05:58:50.900Z,14.45
2023-05-14T06:01:17.354Z,15.52
2023-05-14T06:03:44.857Z,13.10
2023-05-14T06:06:12.841Z,13.00
2023-05-14T06:08:39.320Z,13.68
2023-05-14T06:11:05.814Z,12.80
2023-05-14T06:13:32.219Z,13.68
2023-05-14T06:15:58.739Z,16.65
2023-05-14T06:18:25.304Z,18.98
2023-05-14T06:20:51.747Z,15.23
2023-05-14T06:23:18.144Z,12.93
2023-05-14T06:25:44.545Z,14.20
2023-05-14T06:28:11.181Z,21.33
2023-05-14T06:30:37.562Z,17.02
2023-05-14T06:33:04.165Z,17.95
2023-05-14T06:35:30.632Z,17.88
2023-05-14T06:37:57.110Z,15.98
2023-05-14T06:40:23.680Z,15.65
2023-05-14T06:42:50.356Z,16.33
2023-05-14T06:45:16.822Z,15.40
2023-05-14T06:47:43.370Z,14.18
2023-05-14T06:50:10.985Z,16.58
2023-05-14T06:52:37.710Z,15.07
2023-05-14T06:55:04.345Z,17.20
2023-05-14T06:57:30.818Z,14.10
2023-05-14T06:59:57.519Z,16.75
2023-05-14T07:02:24.334Z,16.20
2023-05-14T07:04:50.826Z,17.25
2023-05-14T07:07:20.428Z,15.52
2023-05-14T07:09:47.597Z,15.57
2023-05-14T07:12:14.122Z,17.25
2023-05-14T07:14:40.532Z,15.55
2023-05-14T07:17:07.037Z,12.82
2023-05-14T07:19:33.565Z,16.33
2023-05-14T07:22:00.052Z,15.18
2023-05-14T07:24:26.506Z,16.35
2023-05-14T07:26:54.349Z,13.43
2023-05-14T07:29:21.025Z,16.38
2023-05-14T07:31:47.510Z,13.40
2023-05-14T07:34:14.011Z,14.10
2023-05-14T07:36:41.101Z,13.25
2023-05-14T07:39:07.862Z,14.30
2023-05-14T07:41:34.291Z,15.00
2023-05-14T07:44:01.009Z,15.65
2023-05-14T07:46:27.408Z,15.40
2023-05-14T07:48:53.897Z,13.55
2023-05-14T07:51:20.313Z,12.23
2023-05-14T07:53:46.771Z,12.02
2023-05-14T07:56:13.183Z,13.20
2023-05-14T07:58:39.715Z,13.70
2023-05-14T08:01:09.135Z,12.55
2023-05-14T08:03:35.696Z,12.15
2023-05-14T08:06:02.187Z,8.90
2023-05-14T08:08:28.693Z,8.48
2023-05-14T08:10:55.680Z,12.15
2023-05-14T08:13:22.187Z,11.48
2023-05-14T08:15:48.832Z,12.48
2023-05-14T08:18:15.278Z,11.13
2023-05-14T08:20:52.207Z,10.65
2023-05-14T08:23:18.691Z,11.30
2023-05-14T08:25:45.437Z,15.82
2023-05-14T08:28:12.096Z,10.95
2023-05-14T08:30:38.614Z,10.15
2023-05-14T08:33:05.072Z,11.13
2023-05-14T08:35:31.535Z,8.45
2023-05-14T08:37:57.975Z,15.00
2023-05-14T08:40:24.641Z,14.40
2023-05-14T08:42:51.540Z,10.00
2023-05-14T08:45:22.076Z,10.40
2023-05-14T08:47:52.569Z,9.15
2023-05-14T08:50:23.530Z,9.65
2023-05-14T08:52:50.790Z,11.98
2023-05-14T08:55:17.274Z,9.65
2023-05-14T08:57:43.788Z,9.27
2023-05-14T09:00:13.381Z,9.32
2023-05-14T09:02:41.191Z,8.02
2023-05-14T09:05:09.267Z,13.15
2023-05-14T09:07:35.941Z,9.98
2023-05-14T09:10:03.793Z,9.25
2023-05-14T09:12:31.137Z,10.27
2023-05-14T09:14:57.629Z,11.35
2023-05-14T09:17:26.126Z,12.65
2023-05-14T09:19:52.964Z,9.63
2023-05-14T09:22:20.138Z,10.05
2023-05-14T09:24:46.875Z,8.25
2023-05-14T09:27:21.712Z,9.35
2023-05-14T09:29:48.370Z,11.52
2023-05-14T09:32:14.791Z,9.40
2023-05-14T09:34:41.304Z,12.02
2023-05-14T09:37:08.732Z,7.22
2023-05-14T09:39:36.752Z,8.05
2023-05-14T09:42:03.468Z,8.93
2023-05-14T09:44:29.924Z,10.98
2023-05-14T09:46:56.689Z,16.15
2023-05-14T09:49:23.373Z,8.00
2023-05-14T09:51:50.381Z,10.57
2023-05-14T09:54:17.577Z,8.93
2023-05-14T09:56:44.500Z,7.70
2023-05-14T09:59:11.264Z,9.75
2023-05-14T10:01:38.317Z,10.52
2023-05-14T10:04:07.159Z,9.45
2023-05-14T10:06:37.022Z,7.20
2023-05-14T10:09:05.718Z,9.20
2023-05-14T10:11:34.512Z,8.98
2023-05-14T10:14:26.867Z,9.38
2023-05-14T10:16:54.122Z,9.57
2023-05-14T10:19:21.596Z,8.65
2023-05-14T10:21:53.268Z,8.15
2023-05-14T10:24:20.090Z,8.38
2023-05-14T10:26:46.880Z,8.90
2023-05-14T10:29:13.348Z,8.38
2023-05-14T10:31:54.085Z,6.72
2023-05-14T10:34:44.120Z,7.80
2023-05-14T10:37:15.749Z,11.40
2023-05-14T10:39:47.149Z,8.95
2023-05-14T10:42:19.136Z,8.80
2023-05-14T10:44:51.652Z,7.28
2023-05-14T10:47:18.434Z,8.65
2023-05-14T10:49:48.886Z,8.60
2023-05-14T10:52:19.231Z,7.70
2023-05-14T10:54:56.128Z,8.20
2023-05-14T10:57:27.470Z,9.93
2023-05-14T10:59:56.263Z,8.38
2023-05-14T11:02:27.219Z,8.48
2023-05-14T11:05:03.906Z,10.98
2023-05-14T11:07:35.638Z,9.23
2023-05-14T11:10:10.078Z,9.02
2023-05-14T11:12:38.527Z,8.77
2023-05-14T11:15:09.778Z,9.63
2023-05-14T11:17:37.221Z,8.52
2023-05-14T11:20:05.905Z,9.05
2023-05-14T11:22:32.412Z,7.72
2023-05-14T11:24:58.923Z,11.48
2023-05-14T11:27:26.254Z,11.88
2023-05-14T11:29:52.831Z,12.40
2023-05-14T11:32:19.661Z,9.52
2023-05-14T11:34:46.824Z,10.77
2023-05-14T11:37:16.569Z,10.50
2023-05-14T11:39:50.828Z,9.32
2023-05-14T11:42:18.750Z,10.65
2023-05-14T11:44:52.462Z,11.57
2023-05-14T11:47:20.461Z,10.40
2023-05-14T11:49:47.428Z,10.25
2023-05-14T11:52:14.921Z,10.38
2023-05-14T11:54:42.518Z,12.48
2023-05-14T11:57:21.977Z,11.82
2023-05-14T11:59:49.797Z,9.82
2023-05-14T12:02:18.462Z,9.18
2023-05-14T12:04:50.673Z,9.70
2023-05-14T12:07:17.242Z,12.43
2023-05-14T12:09:49.701Z,9.90
2023-05-14T12:12:21.283Z,10.93
2023-05-14T12:14:48.633Z,10.80
2023-05-14T12:17:17.309Z,9.00
2023-05-14T12:19:45.008Z,10.75
2023-05-14T12:22:12.261Z,11.20
2023-05-14T12:24:39.286Z,8.20
2023-05-14T12:27:06.977Z,11.15
2023-05-14T12:29:38.800Z,10.32
2023-05-14T12:32:09.677Z,10.65
2023-05-14T12:34:37.653Z,8.90
2023-05-14T12:37:04.977Z,8.85
2023-05-14T12:39:33.783Z,9.93
2023-05-14T12:42:00.464Z,9.50
2023-05-14T12:44:27.047Z,9.98
2023-05-14T12:46:53.690Z,10.82
2023-05-14T12:49:20.290Z,7.38
2023-05-14T12:51:46.996Z,9.07
2023-05-14T12:54:15.708Z,8.43
2023-05-14T12:56:42.209Z,6.95
2023-05-14T12:59:09.595Z,9.23
2023-05-14T13:01:37.588Z,10.05
2023-05-14T13:04:05.397Z,8.80
2023-05-14T13:06:32.305Z,8.75
2023-05-14T13:09:00.192Z,7.97
2023-05-14T13:11:29.508Z,8.93
2023-05-14T13:13:55.980Z,8.00
2023-05-14T13:16:22.450Z,6.43
2023-05-14T13:18:48.950Z,7.22
2023-05-14T13:21:15.427Z,9.93
2023-05-14T13:23:41.919Z,6.28
2023-05-14T13:26:08.400Z,9.02
2023-05-14T13:28:34.862Z,8.55
2023-05-14T13:31:05.945Z,9.70
2023-05-14T13:33:34.159Z,8.13
2023-05-14T13:36:00.732Z,9.98
2023-05-14T13:38:27.212Z,8.40
2023-05-14T13:40:54.273Z,8.32
2023-05-14T13:43:20.955Z,8.07
2023-05-14T13:45:47.427Z,8.63
2023-05-14T13:48:14.075Z,9.65
2023-05-14T13:50:40.534Z,8.93
2023-05-14T13:53:06.968Z,8.40
2023-05-14T13:55:33.384Z,11.60
2023-05-14T13:58:01.854Z,7.93
2023-05-14T14:00:28.309Z,9.35
2023-05-14T14:02:54.792Z,9.82
2023-05-14T14:05:21.500Z,10.40
2023-05-14T14:07:49.724Z,8.80
2023-05-14T14:10:17.055Z,8.98
2023-05-14T14:12:43.514Z,7.82
2023-05-14T14:15:10.617Z,8.32
2023-05-14T14:17:37.949Z,9.45
2023-05-14T14:20:05.860Z,7.28
2023-05-14T14:22:32.493Z,9.82
2023-05-14T14:24:59.042Z,8.45
2023-05-14T14:27:25.995Z,10.55
2023-05-14T14:29:54.075Z,8.38
2023-05-14T14:32:23.677Z,10.10
2023-05-14T14:34:50.172Z,8.40
2023-05-14T14:37:16.610Z,8.15
2023-05-14T14:39:43.027Z,9.20
2023-05-14T14:42:09.460Z,8.07
2023-05-14T14:44:35.905Z,7.88
2023-05-14T14:47:02.360Z,8.18
2023-05-14T14:49:28.956Z,7.78
2023-05-14T14:51:55.432Z,9.68
2023-05-14T14:54:21.929Z,6.70
2023-05-14T14:56:52.295Z,7.78
2023-05-14T14:59:18.731Z,6.93
2023-05-14T15:01:45.376Z,8.18
2023-05-14T15:04:11.830Z,9.32
2023-05-14T15:06:38.301Z,12.75
2023-05-14T15:09:04.740Z,8.98
2023-05-14T15:11:31.271Z,11.00
2023-05-14T15:13:57.727Z,10.68
2023-05-14T15:16:24.181Z,7.50
2023-05-14T15:18:50.849Z,9.65
2023-05-14T15:21:17.338Z,8.18
2023-05-14T15:23:43.795Z,7.60
2023-05-14T15:26:10.301Z,11.32
2023-05-14T15:28:36.825Z,10.63
2023-05-14T15:31:03.429Z,8.57
2023-05-14T15:33:29.856Z,10.57
2023-05-14T15:35:56.314Z,7.95
2023-05-14T15:38:22.736Z,11.00
2023-05-14T15:40:50.832Z,10.45
2023-05-14T15:43:17.320Z,8.57
2023-05-14T15:45:44.592Z,8.70
2023-05-14T15:48:11.176Z,8.38
2023-05-14T15:50:38.469Z,9.55
2023-05-14T15:53:04.967Z,6.93
2023-05-14T15:55:31.392Z,9.82
2023-05-14T15:57:57.912Z,8.85
2023-05-14T16:00:24.863Z,7.68
2023-05-14T16:02:52.110Z,8.27
2023-05-14T16:05:19.022Z,5.97
2023-05-14T16:07:45.510Z,10.88
2023-05-14T16:10:11.933Z,8.10
2023-05-14T16:12:38.446Z,8.07
2023-05-14T16:15:06.125Z,8.48
2023-05-14T16:17:32.810Z,10.70
2023-05-14T16:20:04.689Z,10.02
2023-05-14T16:22:32.681Z,8.85
2023-05-14T16:25:00.614Z,7.85
2023-05-14T16:27:28.414Z,9.43
2023-05-14T16:29:54.964Z,8.82
2023-05-14T16:32:22.732Z,9.07
2023-05-14T16:34:51.732Z,10.57
2023-05-14T16:37:21.585Z,9.07
2023-05-14T16:39:48.560Z,12.57
2023-05-14T16:42:14.990Z,10.98
2023-05-14T16:44:41.445Z,12.32
2023-05-14T16:47:07.981Z,10.25
2023-05-14T16:49:34.401Z,11.43
2023-05-14T16:52:00.969Z,12.82
2023-05-14T16:54:27.415Z,11.10
2023-05-14T16:56:53.844Z,9.38
2023-05-14T16:59:20.322Z,11.60
2023-05-14T17:01:48.044Z,12.90
2023-05-14T17:04:15.048Z,10.57
2023-05-14T17:06:41.510Z,12.25
2023-05-14T17:09:07.912Z,10.70
2023-05-14T17:11:34.318Z,12.68
2023-05-14T17:14:00.750Z,10.55
2023-05-14T17:16:27.360Z,11.00
2023-05-14T17:18:53.856Z,15.77
2023-05-14T17:21:20.305Z,12.95
2023-05-14T17:23:46.737Z,15.50
2023-05-14T17:26:13.145Z,12.48
2023-05-14T17:28:39.580Z,14.55
2023-05-14T17:31:06.366Z,14.65
2023-05-14T17:33:32.972Z,14.18
2023-05-14T17:36:00.333Z,13.07
2023-05-14T17:38:26.882Z,13.57
2023-05-14T17:40:53.583Z,12.85
2023-05-14T17:43:20.057Z,12.48
2023-05-14T17:45:53.822Z,14.80
2023-05-14T17:48:22.079Z,12.80
2023-05-14T17:50:48.502Z,12.32
2023-05-14T17:53:14.923Z,11.50
2023-05-14T17:55:43.598Z,11.38
2023-05-14T17:58:15.281Z,11.25
2023-05-14T18:00:42.346Z,12.38
2023-05-14T18:03:09.050Z,9.90
2023-05-14T18:05:35.781Z,12.05
2023-05-14T18:08:02.408Z,11.82
2023-05-14T18:10:31.811Z,12.52
2023-05-14T18:12:58.235Z,12.55
2023-05-14T18:15:25.860Z,15.85
2023-05-14T18:17:52.772Z,11.98
2023-05-14T18:20:19.537Z,15.07
2023-05-14T18:22:46.097Z,10.07
2023-05-14T18:25:12.956Z,11.05
2023-05-14T18:27:44.307Z,11.73
2023-05-14T18:30:15.250Z,15.48
2023-05-14T18:32:43.712Z,10.98
2023-05-14T18:35:11.345Z,11.52
2023-05-14T18:37:38.227Z,11.70
2023-05-14T18:40:05.211Z,9.63
2023-05-14T18:42:31.706Z,10.07
2023-05-14T18:44:58.174Z,12.02
2023-05-14T18:47:24.721Z,10.48
2023-05-14T18:49:55.016Z,12.30
2023-05-14T18:52:24.733Z,12.82
2023-05-14T18:54:51.189Z,12.25
2023-05-14T18:57:17.589Z,11.23
2023-05-14T18:59:44.050Z,11.23
2023-05-14T19:02:10.829Z,11.38
2023-05-14T19:04:50.713Z,10.57
2023-05-14T19:07:18.781Z,9.15
2023-05-14T19:09:45.209Z,10.98
2023-05-14T19:12:11.718Z,11.45
2023-05-14T19:14:38.206Z,11.73
2023-05-14T19:17:05.444Z,11.15
2023-05-14T19:19:31.902Z,15.80
2023-05-14T19:21:58.560Z,13.13
2023-05-14T19:24:24.992Z,16.88
2023-05-14T19:26:51.455Z,15.18
2023-05-14T19:29:17.886Z,11.30
2023-05-14T19:31:44.375Z,8.25
2023-05-14T19:34:10.974Z,10.90
2023-05-14T19:36:37.439Z,9.55
2023-05-14T19:39:04.098Z,11.48
2023-05-14T19:41:30.690Z,9.93
2023-05-14T19:43:57.163Z,11.55
2023-05-14T19:46:23.684Z,9.75
2023-05-14T19:48:50.124Z,14.85
2023-05-14T19:51:16.697Z,13.60
2023-05-14T19:53:43.192Z,11.98
2023-05-14T19:56:09.665Z,10.20
2023-05-14T19:58:36.153Z,10.23
2023-05-14T20:01:02.783Z,11.30
2023-05-14T20:03:29.850Z,11.10
2023-05-14T20:05:56.487Z,10.85
2023-05-14T20:08:22.918Z,10.82
2023-05-14T20:10:49.543Z,13.55
2023-05-14T20:13:16.162Z,11.05
2023-05-14T20:15:45.504Z,10.57
2023-05-14T20:18:12.151Z,10.95
2023-05-14T20:20:39.879Z,10.23
2023-05-14T20:23:06.560Z,10.10
2023-05-14T20:25:33.259Z,10.90
2023-05-14T20:28:02.799Z,11.18
2023-05-14T20:30:29.534Z,10.48
2023-05-14T20:32:56.417Z,9.70
2023-05-14T20:35:23.196Z,10.85
2023-05-14T20:37:50.029Z,8.32
2023-05-14T20:40:16.580Z,8.15
2023-05-14T20:42:43.250Z,9.20
2023-05-14T20:45:10.665Z,8.43
2023-05-14T20:47:37.418Z,8.50
2023-05-14T20:50:04.657Z,9.35
2023-05-14T20:52:31.332Z,8.73
2023-05-14T20:55:00.799Z,9.57
2023-05-14T20:57:28.396Z,8.07
2023-05-14T20:59:54.841Z,7.90
2023-05-14T21:02:34.864Z,10.35
2023-05-14T21:05:01.552Z,9.65
2023-05-14T21:07:28.892Z,9.82
2023-05-14T21:10:09.875Z,9.70
2023-05-14T21:12:36.427Z,11.88
2023-05-14T21:15:03.097Z,9.05
2023-05-14T21:17:29.612Z,11.57
2023-05-14T21:19:56.068Z,10.73
2023-05-14T21:22:22.717Z,8.43
2023-05-14T21:24:50.181Z,9.95
2023-05-14T21:27:16.906Z,10.80
2023-05-14T21:29:46.159Z,10.95
2023-05-14T21:32:12.554Z,11.05
2023-05-14T21:34:38.939Z,10.02
2023-05-14T21:37:05.574Z,11.48
2023-05-14T21:39:32.067Z,11.80
2023-05-14T21:41:58.458Z,10.05
2023-05-14T21:44:24.847Z,11.60
2023-05-14T21:46:51.302Z,13.52
2023-05-14T21:49:17.692Z,14.25
2023-05-14T21:51:44.124Z,11.43
2023-05-14T21:54:10.618Z,12.30
2023-05-14T21:56:37.206Z,11.48
2023-05-14T21:59:03.655Z,13.57
2023-05-14T22:01:30.187Z,16.58
2023-05-14T22:03:58.039Z,12.40
2023-05-14T22:06:24.758Z,13.88
2023-05-14T22:08:51.255Z,13.85
2023-05-14T22:11:17.679Z,11.50
2023-05-14T22:13:44.108Z,12.05
2023-05-14T22:16:13.401Z,12.60
2023-05-14T22:18:40.652Z,15.18
2023-05-14T22:21:07.111Z,15.65
2023-05-14T22:23:33.563Z,12.55
2023-05-14T22:26:00.028Z,14.02
2023-05-14T22:28:26.510Z,15.02
2023-05-14T22:30:53.053Z,15.38
2023-05-14T22:33:19.532Z,13.70
2023-05-14T22:35:46.193Z,13.23
2023-05-14T22:38:13.573Z,14.35
2023-05-14T22:40:40.056Z,15.45
2023-05-14T22:43:06.458Z,12.20
2023-05-14T22:45:32.903Z,16.13
2023-05-14T22:47:59.491Z,13.30
2023-05-14T22:50:26.182Z,16.95
2023-05-14T22:52:52.584Z,17.38
2023-05-14T22:55:19.099Z,15.88
2023-05-14T22:57:45.652Z,19.08
2023-05-14T23:00:12.783Z,17.33
2023-05-14T23:02:39.365Z,18.10
2023-05-14T23:05:07.779Z,14.95
2023-05-14T23:07:34.605Z,17.17
2023-05-14T23:10:01.055Z,17.20
2023-05-14T23:12:27.449Z,15.90
2023-05-14T23:14:53.894Z,17.60
2023-05-14T23:17:20.461Z,13.63
2023-05-14T23:19:46.976Z,17.83
2023-05-14T23:22:13.447Z,19.48
2023-05-14T23:24:39.918Z,16.05
2023-05-14T23:27:06.456Z,18.60
2023-05-14T23:29:32.931Z,20.50
2023-05-14T23:31:59.448Z,15.73
2023-05-14T23:34:25.947Z,14.98
2023-05-14T23:36:52.781Z,18.98
2023-05-14T23:39:19.256Z,22.15
2023-05-14T23:41:45.935Z,20.35
2023-05-14T23:44:12.631Z,21.10
2023-05-14T23:46:39.088Z,21.17
2023-05-14T23:49:05.722Z,26.70
2023-05-14T23:51:32.178Z,23.35
2023-05-14T23:53:58.813Z,25.48
2023-05-14T23:56:26.281Z,24.85
2023-05-14T23:58:52.816Z,25.02
